Time;durP1;ratioP1;P1;durP2;ratioP2;P2;SDS_P1;SDS_P2;PMS_P1;PMS_P2;Temp;Humidity;BMP_temperature;BMP_pressure;BME280_temperature;BME280_humidity;BME280_pressure;Samples;Min_cycle;Max_cycle;Signal;HPM_P1;HPM_P2
2023/10/27 00:00:31;;;;;;;;;;;;;;;;;;5116646;28;19922;-70
2023/10/27 00:02:57;;;;;;;;;;;;;;;;;;5116358;28;19912;-70
2023/10/27 00:05:23;;;;;;;;;;;;;;;;;;5116569;28;19953;-70
2023/10/27 00:07:49;;;;;;;;;;;;;;;;;;5116569;28;19912;-70
2023/10/27 00:10:15;;;;;;;;;;;;;;;;;;5116034;28;19915;-70
2023/10/27 00:12:41;;;;;;;;;;;;;;;;;;5116625;28;19947;-70
2023/10/27 00:15:07;;;;;;;;;;;;;;;;;;5116685;28;20338;-70
2023/10/27 00:17:33;;;;;;;;;;;;;;;;;;5114440;28;19920;-70
2023/10/27 00:19:59;;;;;;;;;;;;;;;;;;5116397;28;19919;-70
2023/10/27 00:22:25;;;;;;;;;;;;;;;;;;5116370;28;19908;-70
2023/10/27 00:24:51;;;;;;;;;;;;;;;;;;5115769;28;20458;-70
2023/10/27 00:27:18;;;;;;;;;;;;;;;;;;5116119;28;19915;-70
2023/10/27 00:29:43;;;;;;;;;;;;;;;;;;5115713;28;19946;-70
2023/10/27 00:32:09;;;;;;;;;;;;;;;;;;5116027;28;20284;-70
2023/10/27 00:34:35;;;;;;;;;;;;;;;;;;5116168;28;20294;-70
2023/10/27 00:37:01;;;;;;;;;;;;;;;;;;5114189;28;20323;-70
2023/10/27 00:39:27;;;;;;;;;;;;;;;;;;5115105;28;20393;-70
2023/10/27 00:41:53;;;;;;;;;;;;;;;;;;5115600;28;20326;-70
2023/10/27 00:44:19;;;;;;;;;;;;;;;;;;5115454;28;20283;-70
2023/10/27 00:46:45;;;;;;;;;;;;;;;;;;5115762;28;19908;-70
2023/10/27 00:49:11;;;;;;;;;;;;;;;;;;5115943;28;19908;-70
2023/10/27 00:51:37;;;;;;;;;;;;;;;;;;5115582;28;19908;-70
2023/10/27 00:54:03;;;;;;;;;;;;;;;;;;5115636;28;19947;-70
2023/10/27 00:56:29;;;;;;;;;;;;;;;;;;5115514;28;19915;-70
2023/10/27 00:58:55;;;;;;;;;;;;;;;;;;5115200;28;19907;-70
2023/10/27 01:01:21;;;;;;;;;;;;;;;;;;5115465;28;19946;-69
2023/10/27 01:03:47;;;;;;;;;;;;;;;;;;5115470;28;19907;-70
2023/10/27 01:06:13;;;;;;;;;;;;;;;;;;5115023;28;19960;-70
2023/10/27 01:08:39;;;;;;;;;;;;;;;;;;5115336;28;19953;-70
2023/10/27 01:11:05;;;;;;;;;;;;;;;;;;5115332;28;19908;-70
2023/10/27 01:13:31;;;;;;;;;;;;;;;;;;5114770;28;19915;-70
2023/10/27 01:15:57;;;;;;;;;;;;;;;;;;5113636;28;19942;-69
2023/10/27 01:18:23;;;;;;;;;;;;;;;;;;5115295;28;19922;-70
2023/10/27 01:20:48;;;;;;;;;;;;;;;;;;5114750;28;19914;-70
2023/10/27 01:23:14;;;;;;;;;;;;;;;;;;5115165;28;19908;-70
2023/10/27 01:25:40;;;;;;;;;;;;;;;;;;5114971;28;19911;-70
2023/10/27 01:28:08;;;;;;;;;;;;;;;;;;5114627;28;19913;-70
2023/10/27 01:30:34;;;;;;;;;;;;;;;;;;5113702;28;19912;-70
2023/10/27 01:33:01;;;;;;;;;;;;;;;;;;5114473;28;19961;-70
2023/10/27 01:35:27;;;;;;;;;;;;;;;;;;5114888;28;19908;-70
2023/10/27 01:37:53;;;;;;;;;;;;;;;;;;5114774;28;20350;-70
2023/10/27 01:40:19;;;;;;;;;;;;;;;;;;5113145;28;20297;-70
2023/10/27 01:42:45;;;;;;;;;;;;;;;;;;5114736;28;20359;-70
2023/10/27 01:45:13;;;;;;;;;;;;;;;;;;5114932;28;19914;-70
2023/10/27 01:47:39;;;;;;;;;;;;;;;;;;5114268;28;19907;-70
2023/10/27 01:50:05;;;;;;;;;;;;;;;;;;5113370;28;20452;-70
2023/10/27 01:52:31;;;;;;;;;;;;;;;;;;5114383;28;19911;-70
2023/10/27 01:54:57;;;;;;;;;;;;;;;;;;5114412;28;20399;-70
2023/10/27 01:57:23;;;;;;;;;;;;;;;;;;5114490;28;19923;-70
2023/10/27 01:59:49;;;;;;;;;;;;;;;;;;5114527;28;19914;-70
2023/10/27 02:02:16;;;;;;;;;;;;;;;;;;5114093;28;20010;-70
2023/10/27 02:04:42;;;;;;;;;;;;;;;;;;5113071;28;19912;-70
2023/10/27 02:07:08;;;;;;;;;;;;;;;;;;5114356;28;19961;-71
2023/10/27 02:09:34;;;;;;;;;;;;;;;;;;5113929;28;19990;-70
2023/10/27 02:12:00;;;;;;;;;;;;;;;;;;5114295;28;19908;-70
2023/10/27 02:14:26;;;;;;;;;;;;;;;;;;5113009;28;19908;-70
2023/10/27 02:16:51;;;;;;;;;;;;;;;;;;5113564;28;19927;-70
2023/10/27 02:19:17;;;;;;;;;;;;;;;;;;5113000;28;19914;-70
2023/10/27 02:21:43;;;;;;;;;;;;;;;;;;5114335;28;19912;-70
2023/10/27 02:24:09;;;;;;;;;;;;;;;;;;5113848;28;20403;-70
2023/10/27 02:26:35;;;;;;;;;;;;;;;;;;5114181;28;20020;-70
2023/10/27 02:29:01;;;;;;;;;;;;;;;;;;5114226;28;20575;-70
2023/10/27 02:31:28;;;;;;;;;;;;;;;;;;5113761;28;19912;-71
2023/10/27 02:33:54;;;;;;;;;;;;;;;;;;5114194;28;19953;-71
2023/10/27 02:36:20;;;;;;;;;;;;;;;;;;5113663;28;19919;-71
2023/10/27 02:38:46;;;;;;;;;;;;;;;;;;5114094;28;19908;-71
2023/10/27 02:41:12;;;;;;;;;;;;;;;;;;5114352;28;19911;-71
2023/10/27 02:43:38;;;;;;;;;;;;;;;;;;5113713;28;19961;-71
2023/10/27 02:46:04;;;;;;;;;;;;;;;;;;5114017;28;19961;-71
2023/10/27 02:48:30;;;;;;;;;;;;;;;;;;5114067;28;19939;-71
2023/10/27 02:50:56;;;;;;;;;;;;;;;;;;5113731;28;19908;-71
2023/10/27 02:53:21;;;;;;;;;;;;;;;;;;5113935;28;19916;-71
2023/10/27 02:55:47;;;;;;;;;;;;;;;;;;5114110;28;19908;-71
2023/10/27 02:58:13;;;;;;;;;;;;;;;;;;5113525;28;19916;-71
2023/10/27 03:00:39;;;;;;;;;;;;;;;;;;5112648;28;20000;-71
2023/10/27 03:03:05;;;;;;;;;;;;;;;;;;5113386;28;19974;-71
2023/10/27 03:05:31;;;;;;;;;;;;;;;;;;5116180;28;20271;-71
2023/10/27 03:07:57;;;;;;;;;;;;;;;;;;5117694;28;20325;-71
2023/10/27 03:10:23;;;;;;;;;;;;;;;;;;5117665;28;20325;-71
2023/10/27 03:12:49;;;;;;;;;;;;;;;;;;5115999;28;19907;-71
2023/10/27 03:15:15;;;;;;;;;;;;;;;;;;5117571;28;19982;-71
2023/10/27 03:17:41;;;;;;;;;;;;;;;;;;5117295;28;19949;-71
2023/10/27 03:20:07;;;;;;;;;;;;;;;;;;5117119;28;19908;-70
2023/10/27 03:22:33;;;;;;;;;;;;;;;;;;5117484;28;19908;-71
2023/10/27 03:24:59;;;;;;;;;;;;;;;;;;5117402;28;19961;-71
2023/10/27 03:27:25;;;;;;;;;;;;;;;;;;5116939;28;19915;-71
2023/10/27 03:29:51;;;;;;;;;;;;;;;;;;5117351;28;19908;-71
2023/10/27 03:32:17;;;;;;;;;;;;;;;;;;5117242;28;19908;-71
2023/10/27 03:34:45;;;;;;;;;;;;;;;;;;5116839;28;19915;-71
2023/10/27 03:37:11;;;;;;;;;;;;;;;;;;5117010;28;20023;-71
2023/10/27 03:39:37;;;;;;;;;;;;;;;;;;5115393;28;20047;-71
2023/10/27 03:42:03;;;;;;;;;;;;;;;;;;5117023;28;19915;-71
2023/10/27 03:44:29;;;;;;;;;;;;;;;;;;5116957;28;19908;-71
2023/10/27 03:46:55;;;;;;;;;;;;;;;;;;5116656;28;19907;-71
2023/10/27 03:49:21;;;;;;;;;;;;;;;;;;5116969;28;20378;-71
2023/10/27 03:51:47;;;;;;;;;;;;;;;;;;5116892;28;20295;-71
2023/10/27 03:54:13;;;;;;;;;;;;;;;;;;5116356;28;20331;-71
2023/10/27 03:56:39;;;;;;;;;;;;;;;;;;5116682;28;19911;-71
2023/10/27 03:59:05;;;;;;;;;;;;;;;;;;5116718;28;19947;-70
2023/10/27 04:01:32;;;;;;;;;;;;;;;;;;5116275;28;19908;-71
2023/10/27 04:03:58;;;;;;;;;;;;;;;;;;5116688;28;19947;-70
2023/10/27 04:06:24;;;;;;;;;;;;;;;;;;5116618;28;20355;-71
2023/10/27 04:08:50;;;;;;;;;;;;;;;;;;5116118;28;19908;-71
2023/10/27 04:11:15;;;;;;;;;;;;;;;;;;5116366;28;19960;-71
2023/10/27 04:13:41;;;;;;;;;;;;;;;;;;5116301;28;19911;-71
2023/10/27 04:16:07;;;;;;;;;;;;;;;;;;5115700;28;19912;-71
2023/10/27 04:18:33;;;;;;;;;;;;;;;;;;5116370;28;19914;-71
2023/10/27 04:20:59;;;;;;;;;;;;;;;;;;5116423;28;20287;-71
2023/10/27 04:23:25;;;;;;;;;;;;;;;;;;5115783;28;19915;-71
2023/10/27 04:25:51;;;;;;;;;;;;;;;;;;5116211;28;19908;-71
2023/10/27 04:28:17;;;;;;;;;;;;;;;;;;5116466;28;19908;-70
2023/10/27 04:30:43;;;;;;;;;;;;;;;;;;5115854;28;19908;-71
2023/10/27 04:33:10;;;;;;;;;;;;;;;;;;5114700;28;19907;-70
2023/10/27 04:35:36;;;;;;;;;;;;;;;;;;5115798;28;20253;-70
2023/10/27 04:38:03;;;;;;;;;;;;;;;;;;5115379;28;19943;-70
2023/10/27 04:40:30;;;;;;;;;;;;;;;;;;5115966;28;19907;-70
2023/10/27 04:42:58;;;;;;;;;;;;;;;;;;5115574;28;19947;-70
2023/10/27 04:45:24;;;;;;;;;;;;;;;;;;5115856;28;20351;-70
2023/10/27 04:47:50;;;;;;;;;;;;;;;;;;5115718;28;20056;-70
2023/10/27 04:50:16;;;;;;;;;;;;;;;;;;5114400;28;20264;-70
2023/10/27 04:52:42;;;;;;;;;;;;;;;;;;5115721;28;19918;-70
2023/10/27 04:55:08;;;;;;;;;;;;;;;;;;5115894;28;19943;-70
2023/10/27 04:57:35;;;;;;;;;;;;;;;;;;5115108;28;20041;-70
2023/10/27 05:00:01;;;;;;;;;;;;;;;;;;5115491;28;19943;-70
2023/10/27 05:02:27;;;;;;;;;;;;;;;;;;5115728;28;20409;-70
2023/10/27 05:04:53;;;;;;;;;;;;;;;;;;5114960;28;20363;-70
2023/10/27 05:07:18;;;;;;;;;;;;;;;;;;5115285;28;19907;-70
2023/10/27 05:09:44;;;;;;;;;;;;;;;;;;5115926;28;19935;-70
2023/10/27 05:12:10;;;;;;;;;;;;;;;;;;5113656;28;20359;-70
2023/10/27 05:14:36;;;;;;;;;;;;;;;;;;5115338;28;20352;-70
2023/10/27 05:17:02;;;;;;;;;;;;;;;;;;5115000;28;20438;-70
2023/10/27 05:19:28;;;;;;;;;;;;;;;;;;5106151;28;20384;-71
2023/10/27 05:21:55;;;;;;;;;;;;;;;;;;5106315;28;19908;-71
2023/10/27 05:24:21;;;;;;;;;;;;;;;;;;5106107;28;19919;-72
2023/10/27 05:26:47;;;;;;;;;;;;;;;;;;5108720;28;19912;-74
2023/10/27 05:29:14;;;;;;;;;;;;;;;;;;5097272;28;19916;-74
2023/10/27 05:31:42;;;;;;;;;;;;;;;;;;5112887;28;19914;-75
2023/10/27 05:34:09;;;;;;;;;;;;;;;;;;5103710;28;19912;-70
2023/10/27 05:36:35;;;;;;;;;;;;;;;;;;5099210;28;19939;-72
2023/10/27 05:39:02;;;;;;;;;;;;;;;;;;5095470;28;19912;-70
2023/10/27 05:41:28;;;;;;;;;;;;;;;;;;5099299;28;20462;-69
2023/10/27 05:43:54;;;;;;;;;;;;;;;;;;5093347;28;19915;-70
2023/10/27 05:46:20;;;;;;;;;;;;;;;;;;5091960;28;20553;-70
2023/10/27 05:48:46;;;;;;;;;;;;;;;;;;5110095;28;20010;-70
2023/10/27 05:51:12;;;;;;;;;;;;;;;;;;5113870;28;20314;-70
2023/10/27 05:53:38;;;;;;;;;;;;;;;;;;5109280;28;19920;-70
2023/10/27 05:56:04;;;;;;;;;;;;;;;;;;5101472;28;19912;-70
2023/10/27 05:58:32;;;;;;;;;;;;;;;;;;5094622;28;19912;-73
2023/10/27 06:01:00;;;;;;;;;;;;;;;;;;5093564;28;19920;-68
2023/10/27 06:03:26;;;;;;;;;;;;;;;;;;5109673;28;19907;-68
2023/10/27 06:05:52;;;;;;;;;;;;;;;;;;5110676;28;20455;-70
2023/10/27 06:08:20;;;;;;;;;;;;;;;;;;5103926;28;19990;-69
2023/10/27 06:10:47;;;;;;;;;;;;;;;;;;5103127;28;19912;-69
2023/10/27 06:13:14;;;;;;;;;;;;;;;;;;5103034;28;19912;-70
2023/10/27 06:15:39;;;;;;;;;;;;;;;;;;5103865;28;20014;-67
2023/10/27 06:18:05;;;;;;;;;;;;;;;;;;5098784;28;19920;-68
2023/10/27 06:20:31;;;;;;;;;;;;;;;;;;5093689;28;19916;-69
2023/10/27 06:22:58;;;;;;;;;;;;;;;;;;5106630;28;20465;-68
2023/10/27 06:25:25;;;;;;;;;;;;;;;;;;5099509;28;20287;-69
2023/10/27 06:27:51;;;;;;;;;;;;;;;;;;5093191;28;19908;-68
2023/10/27 06:30:18;;;;;;;;;;;;;;;;;;5094154;28;20018;-68
2023/10/27 06:32:45;;;;;;;;;;;;;;;;;;5101169;28;20065;-70
2023/10/27 06:35:11;;;;;;;;;;;;;;;;;;5103962;28;20002;-70
2023/10/27 06:38:27;;;;;;;;;;;;;;;;;;5109998;27;19922;-68
2023/10/27 06:40:53;;;;;;;;;;;;;;;;;;5109870;28;19916;-70
2023/10/27 06:43:19;;;;;;;;;;;;;;;;;;5107677;28;19953;-68
2023/10/27 06:45:45;;;;;;;;;;;;;;;;;;5104489;28;19917;-68
2023/10/27 06:48:11;;;;;;;;;;;;;;;;;;5090336;28;19912;-69
2023/10/27 06:50:37;;;;;;;;;;;;;;;;;;5088575;28;19954;-69
2023/10/27 06:53:03;;;;;;;;;;;;;;;;;;5120221;27;19930;-69
2023/10/27 06:55:29;;;;;;;;;;;;;;;;;;5090820;28;19915;-70
2023/10/27 06:59:19;;;;;;;;;;;;;;;;;;5124609;27;19916;-69
2023/10/27 07:01:45;;;;;;;;;;;;;;;;;;5107051;28;20573;-70
2023/10/27 07:04:13;;;;;;;;;;;;;;;;;;5102156;28;19908;-69
2023/10/27 07:06:39;;;;;;;;;;;;;;;;;;5108550;28;19919;-68
2023/10/27 07:09:05;;;;;;;;;;;;;;;;;;5110464;28;19912;-68
2023/10/27 07:11:31;;;;;;;;;;;;;;;;;;5108176;28;20330;-68
2023/10/27 07:14:23;;;;;;;;;;;;;;;;;;5104032;27;19916;-69
2023/10/27 07:19:41;;;;;;;;;;;;;;;;;;5082565;27;20398;-68
2023/10/27 07:24:34;;;;;;;;;;;;;;;;;;5077869;28;19924;-69
2023/10/27 07:27:00;;;;;;;;;;;;;;;;;;5069169;28;19923;-68
2023/10/27 07:29:26;;;;;;;;;;;;;;;;;;5060988;28;20282;-70
2023/10/27 07:31:53;;;;;;;;;;;;;;;;;;5087572;28;19920;-69
2023/10/27 07:34:50;;;;;;;;;;;;;;;;;;5109669;27;19915;-70
2023/10/27 07:37:18;;;;;;;;;;;;;;;;;;5115284;28;19912;-69
2023/10/27 07:40:58;;;;;;;;;;;;;;;;;;5026279;28;19929;-71
2023/10/27 07:43:24;;;;;;;;;;;;;;;;;;5009381;28;19914;-69
2023/10/27 07:45:50;;;;;;;;;;;;;;;;;;5009452;28;19914;-70
2023/10/27 07:49:20;;;;;;;;;;;;;;;;;;5083004;27;19912;-68
2023/10/27 07:51:46;;;;;;;;;;;;;;;;;;5089563;28;20455;-71
2023/10/27 07:54:12;;;;;;;;;;;;;;;;;;5084693;28;19991;-69
2023/10/27 07:56:38;;;;;;;;;;;;;;;;;;5086660;28;19962;-69
2023/10/27 07:59:04;;;;;;;;;;;;;;;;;;5088977;28;20368;-68
2023/10/27 08:01:31;;;;;;;;;;;;;;;;;;5089247;28;19919;-71
2023/10/27 08:03:59;;;;;;;;;;;;;;;;;;5088685;28;20377;-68
2023/10/27 08:07:02;;;;;;;;;;;;;;;;;;5149314;27;20708;-69
2023/10/27 08:10:21;;;;;;;;;;;;;;;;;;5107546;27;20406;-69
2023/10/27 08:13:08;;;;;;;;;;;;;;;;;;5109521;27;19930;-67
2023/10/27 08:15:34;;;;;;;;;;;;;;;;;;5109382;28;19912;-68
2023/10/27 08:22:35;;;;;;;;;;;;;;;;;;5109937;27;20418;-68
2023/10/27 08:25:00;;;;;;;;;;;;;;;;;;5118603;28;19916;-67
2023/10/27 08:27:26;;;;;;;;;;;;;;;;;;5105924;28;19908;-68
2023/10/27 08:29:52;;;;;;;;;;;;;;;;;;5106784;28;19919;-68
2023/10/27 08:32:18;;;;;;;;;;;;;;;;;;5106891;28;20369;-69
2023/10/27 08:34:44;;;;;;;;;;;;;;;;;;5098670;28;19962;-69
2023/10/27 08:37:10;;;;;;;;;;;;;;;;;;5101263;28;20003;-68
2023/10/27 08:39:36;;;;;;;;;;;;;;;;;;5108498;28;19966;-67
2023/10/27 08:42:04;;;;;;;;;;;;;;;;;;5107968;28;20392;-68
2023/10/27 08:47:54;;;;;;;;;;;;;;;;;;5049656;28;19931;-70
2023/10/27 08:50:20;;;;;;;;;;;;;;;;;;5061939;28;20328;-68
2023/10/27 08:54:17;;;;;;;;;;;;;;;;;;5075563;27;19920;-68
2023/10/27 08:56:43;;;;;;;;;;;;;;;;;;5072265;28;19912;-69
2023/10/27 08:59:10;;;;;;;;;;;;;;;;;;5067360;28;19913;-70
2023/10/27 09:01:36;;;;;;;;;;;;;;;;;;5064358;28;20632;-69
2023/10/27 09:06:00;;;;;;;;;;;;;;;;;;5089086;27;19923;-68
2023/10/27 09:11:07;;;;;;;;;;;;;;;;;;5109852;27;19923;-67
2023/10/27 09:14:02;;;;;;;;;;;;;;;;;;5107140;27;19921;-67
2023/10/27 09:18:23;;;;;;;;;;;;;;;;;;5107827;27;19912;-68
2023/10/27 09:20:50;;;;;;;;;;;;;;;;;;5110884;28;19912;-68
2023/10/27 09:23:16;;;;;;;;;;;;;;;;;;5110548;28;19909;-68
2023/10/27 09:28:01;;;;;;;;;;;;;;;;;;5106264;27;19930;-69
2023/10/27 09:30:27;;;;;;;;;;;;;;;;;;5099192;28;19916;-70
2023/10/27 09:34:37;;;;;;;;;;;;;;;;;;5106523;27;20037;-70
2023/10/27 09:37:16;;;;;;;;;;;;;;;;;;5076324;27;20578;-70
2023/10/27 09:39:42;;;;;;;;;;;;;;;;;;5066215;28;19940;-71
2023/10/27 09:42:08;;;;;;;;;;;;;;;;;;5060955;28;19970;-72
2023/10/27 09:51:36;;;;;;;;;;;;;;;;;;5091226;28;19916;-71
2023/10/27 09:54:02;;;;;;;;;;;;;;;;;;5087164;28;19962;-70
2023/10/27 09:57:35;;;;;;;;;;;;;;;;;;5055878;28;20373;-71
2023/10/27 10:00:01;;;;;;;;;;;;;;;;;;5036764;28;19913;-69
2023/10/27 10:04:11;;;;;;;;;;;;;;;;;;5024433;27;3603834;-69
2023/10/27 10:06:38;;;;;;;;;;;;;;;;;;5149830;27;19946;-70
2023/10/27 10:09:04;;;;;;;;;;;;;;;;;;5138539;27;19919;-71
2023/10/27 10:13:44;;;;;;;;;;;;;;;;;;5088506;27;20295;-71
2023/10/27 10:16:10;;;;;;;;;;;;;;;;;;5090741;28;19999;-71
2023/10/27 10:18:36;;;;;;;;;;;;;;;;;;5088391;28;19955;-72
2023/10/27 10:21:02;;;;;;;;;;;;;;;;;;5083952;28;20344;-69
2023/10/27 10:23:28;;;;;;;;;;;;;;;;;;5067224;28;19917;-69
2023/10/27 10:25:57;;;;;;;;;;;;;;;;;;5074095;28;19938;-71
2023/10/27 10:28:23;;;;;;;;;;;;;;;;;;5085082;28;19909;-71
2023/10/27 10:32:46;;;;;;;;;;;;;;;;;;5144745;27;19924;-70
2023/10/27 10:36:27;;;;;;;;;;;;;;;;;;5092815;27;19921;-69
2023/10/27 10:38:56;;;;;;;;;;;;;;;;;;5081717;28;19913;-71
2023/10/27 10:41:22;;;;;;;;;;;;;;;;;;5073944;28;19915;-70
2023/10/27 10:48:04;;;;;;;;;;;;;;;;;;5111129;27;19920;-71
2023/10/27 10:52:51;;;;;;;;;;;;;;;;;;5173252;27;19915;-69
2023/10/27 10:57:43;;;;;;;;;;;;;;;;;;5111133;27;19923;-68
2023/10/27 11:00:13;;;;;;;;;;;;;;;;;;5111114;28;20007;-69
2023/10/27 11:02:40;;;;;;;;;;;;;;;;;;5108955;28;20364;-70
2023/10/27 11:06:57;;;;;;;;;;;;;;;;;;4805697;27;9686734;-70
2023/10/27 11:09:42;;;;;;;;;;;;;;;;;;5090295;27;19926;-71
2023/10/27 11:12:36;;;;;;;;;;;;;;;;;;5110214;27;19916;-68
2023/10/27 11:18:33;;;;;;;;;;;;;;;;;;5169402;27;20335;-71
2023/10/27 11:22:32;;;;;;;;;;;;;;;;;;5125716;27;19915;-71
2023/10/27 11:26:32;;;;;;;;;;;;;;;;;;5107768;27;19920;-71
2023/10/27 11:28:59;;;;;;;;;;;;;;;;;;5106934;28;19938;-70
2023/10/27 11:31:25;;;;;;;;;;;;;;;;;;5108781;28;19912;-70
2023/10/27 11:37:01;;;;;;;;;;;;;;;;;;5113315;27;19919;-70
2023/10/27 11:41:48;;;;;;;;;;;;;;;;;;5090157;27;19920;-69
2023/10/27 11:44:14;;;;;;;;;;;;;;;;;;5090540;28;19935;-67
2023/10/27 11:46:40;;;;;;;;;;;;;;;;;;5090245;28;20356;-69
2023/10/27 11:49:24;;;;;;;;;;;;;;;;;;5110744;27;19920;-67
2023/10/27 11:51:50;;;;;;;;;;;;;;;;;;5109320;28;20437;-68
2023/10/27 11:55:13;;;;;;;;;;;;;;;;;;5089412;28;19926;-67
2023/10/27 11:57:39;;;;;;;;;;;;;;;;;;5086760;28;20007;-69
2023/10/27 12:00:05;;;;;;;;;;;;;;;;;;5070564;28;19909;-68
2023/10/27 12:02:33;;;;;;;;;;;;;;;;;;5070842;28;20380;-69
2023/10/27 12:07:31;;;;;;;;;;;;;;;;;;5110979;27;19920;-69
2023/10/27 12:09:57;;;;;;;;;;;;;;;;;;5095169;28;20347;-69
2023/10/27 12:18:22;;;;;;;;;;;;;;;;;;5143809;27;20265;-70
2023/10/27 12:20:49;;;;;;;;;;;;;;;;;;5110957;28;19970;-70
2023/10/27 12:23:15;;;;;;;;;;;;;;;;;;5111596;28;19908;-69
2023/10/27 12:29:43;;;;;;;;;;;;;;;;;;5091375;27;20322;-68
2023/10/27 12:36:20;;;;;;;;;;;;;;;;;;5090830;27;19912;-68
2023/10/27 12:38:47;;;;;;;;;;;;;;;;;;5091011;28;19918;-69
2023/10/27 12:41:13;;;;;;;;;;;;;;;;;;5089928;28;19912;-69
2023/10/27 12:45:54;;;;;;;;;;;;;;;;;;5111318;27;20578;-71
2023/10/27 12:52:06;;;;;;;;;;;;;;;;;;5091592;27;19917;-70
2023/10/27 12:54:32;;;;;;;;;;;;;;;;;;5091180;28;20456;-70
2023/10/27 12:56:58;;;;;;;;;;;;;;;;;;5090476;28;20007;-70
2023/10/27 12:59:25;;;;;;;;;;;;;;;;;;5090701;28;19908;-72
2023/10/27 13:01:51;;;;;;;;;;;;;;;;;;5089240;28;19923;-73
2023/10/27 13:06:18;;;;;;;;;;;;;;;;;;5128779;27;20372;-72
2023/10/27 13:19:28;;;;;;;;;;;;;;;;;;5090940;27;19944;-71
2023/10/27 13:21:54;;;;;;;;;;;;;;;;;;5090902;28;19943;-72
2023/10/27 13:31:17;;;;;;;;;;;;;;;;;;5111507;27;19922;-72
2023/10/27 13:33:43;;;;;;;;;;;;;;;;;;5111640;28;20350;-72
2023/10/27 13:39:43;;;;;;;;;;;;;;;;;;5091909;28;19916;-72
2023/10/27 13:46:01;;;;;;;;;;;;;;;;;;5071021;28;19916;-72
2023/10/27 13:48:27;;;;;;;;;;;;;;;;;;5071361;28;19959;-72
2023/10/27 13:50:53;;;;;;;;;;;;;;;;;;5071009;28;19916;-72
2023/10/27 13:53:19;;;;;;;;;;;;;;;;;;5070661;28;19912;-72
2023/10/27 13:57:56;;;;;;;;;;;;;;;;;;5111896;27;20073;-73
2023/10/27 14:00:27;;;;;;;;;;;;;;;;;;5111298;28;20441;-73
2023/10/27 14:02:55;;;;;;;;;;;;;;;;;;5111855;28;19969;-73
2023/10/27 14:16:04;;;;;;;;;;;;;;;;;;5091696;27;19918;-73
2023/10/27 14:18:30;;;;;;;;;;;;;;;;;;5091510;28;20003;-71
2023/10/27 14:23:20;;;;;;;;;;;;;;;;;;5091799;27;19917;-71
2023/10/27 14:27:49;;;;;;;;;;;;;;;;;;5091121;27;20003;-72
2023/10/27 14:30:15;;;;;;;;;;;;;;;;;;5091704;28;20007;-72
2023/10/27 14:32:41;;;;;;;;;;;;;;;;;;5091275;28;19998;-72
2023/10/27 14:35:08;;;;;;;;;;;;;;;;;;5090852;28;19912;-72
2023/10/27 14:37:34;;;;;;;;;;;;;;;;;;5091135;28;20002;-72
2023/10/27 14:40:01;;;;;;;;;;;;;;;;;;5089853;28;19966;-72
2023/10/27 14:42:26;;;;;;;;;;;;;;;;;;5090763;28;19967;-72
2023/10/27 14:44:53;;;;;;;;;;;;;;;;;;5090973;28;20361;-72
2023/10/27 14:47:19;;;;;;;;;;;;;;;;;;5089662;28;20008;-72
2023/10/27 14:49:45;;;;;;;;;;;;;;;;;;5090515;28;20379;-73
2023/10/27 14:52:11;;;;;;;;;;;;;;;;;;5090856;28;19931;-73
2023/10/27 14:56:32;;;;;;;;;;;;;;;;;;5091133;27;19922;-72
2023/10/27 14:58:58;;;;;;;;;;;;;;;;;;5091515;28;20347;-73
2023/10/27 15:01:24;;;;;;;;;;;;;;;;;;5091290;28;19912;-72
2023/10/27 15:04:51;;;;;;;;;;;;;;;;;;5111883;27;20291;-73
2023/10/27 15:07:20;;;;;;;;;;;;;;;;;;5111656;28;19998;-73
2023/10/27 15:09:46;;;;;;;;;;;;;;;;;;5109895;28;19922;-73
2023/10/27 15:12:12;;;;;;;;;;;;;;;;;;5111575;28;19908;-72
2023/10/27 15:14:38;;;;;;;;;;;;;;;;;;5111506;28;19912;-73
2023/10/27 15:17:04;;;;;;;;;;;;;;;;;;5111152;28;20368;-72
2023/10/27 15:19:31;;;;;;;;;;;;;;;;;;5111509;28;20376;-72
2023/10/27 15:21:57;;;;;;;;;;;;;;;;;;5111540;28;19908;-72
2023/10/27 15:24:26;;;;;;;;;;;;;;;;;;5110996;28;19939;-72
2023/10/27 15:26:52;;;;;;;;;;;;;;;;;;5111331;28;19908;-73
2023/10/27 15:29:18;;;;;;;;;;;;;;;;;;5111274;28;20288;-72
2023/10/27 15:31:44;;;;;;;;;;;;;;;;;;5110931;28;19908;-73
2023/10/27 15:34:10;;;;;;;;;;;;;;;;;;5111454;28;20360;-73
2023/10/27 15:38:19;;;;;;;;;;;;;;;;;;5091038;27;19939;-73
2023/10/27 15:41:18;;;;;;;;;;;;;;;;;;5153144;27;20010;-73
2023/10/27 15:43:43;;;;;;;;;;;;;;;;;;5134324;27;19954;-73
2023/10/27 15:46:09;;;;;;;;;;;;;;;;;;5152443;27;19914;-73
2023/10/27 15:48:35;;;;;;;;;;;;;;;;;;5152829;27;19922;-73
2023/10/27 15:51:01;;;;;;;;;;;;;;;;;;5152383;27;19942;-73
2023/10/27 15:53:27;;;;;;;;;;;;;;;;;;5152748;27;19950;-73
2023/10/27 15:55:53;;;;;;;;;;;;;;;;;;5152679;27;19908;-73
2023/10/27 15:58:20;;;;;;;;;;;;;;;;;;5152270;27;19907;-73
2023/10/27 16:00:46;;;;;;;;;;;;;;;;;;5152551;27;20267;-73
2023/10/27 16:03:12;;;;;;;;;;;;;;;;;;5152761;27;19951;-73
2023/10/27 16:05:38;;;;;;;;;;;;;;;;;;5152043;27;19907;-72
2023/10/27 16:08:04;;;;;;;;;;;;;;;;;;5152554;27;20299;-73
2023/10/27 16:10:30;;;;;;;;;;;;;;;;;;5133802;27;20446;-72
2023/10/27 16:12:56;;;;;;;;;;;;;;;;;;5151938;27;19976;-72
2023/10/27 16:15:21;;;;;;;;;;;;;;;;;;5152815;27;20010;-72
2023/10/27 16:18:04;;;;;;;;;;;;;;;;;;5091524;27;20287;-72
2023/10/27 16:20:30;;;;;;;;;;;;;;;;;;5090928;28;19999;-72
2023/10/27 16:22:56;;;;;;;;;;;;;;;;;;5091277;28;20002;-72
2023/10/27 16:25:22;;;;;;;;;;;;;;;;;;5091170;28;19915;-72
2023/10/27 16:27:48;;;;;;;;;;;;;;;;;;5090716;28;19969;-72
2023/10/27 16:30:14;;;;;;;;;;;;;;;;;;5091563;28;20349;-72
2023/10/27 16:32:40;;;;;;;;;;;;;;;;;;5091599;28;19940;-73
2023/10/27 16:35:06;;;;;;;;;;;;;;;;;;5090687;28;19908;-73
2023/10/27 16:39:48;;;;;;;;;;;;;;;;;;5091556;27;19917;-73
2023/10/27 16:44:23;;;;;;;;;;;;;;;;;;5071027;28;19912;-70
2023/10/27 16:46:52;;;;;;;;;;;;;;;;;;5071068;28;20343;-71
2023/10/27 16:49:18;;;;;;;;;;;;;;;;;;5070531;28;19909;-70
2023/10/27 16:51:44;;;;;;;;;;;;;;;;;;5070908;28;19909;-71
2023/10/27 16:54:12;;;;;;;;;;;;;;;;;;5070831;28;19971;-73
2023/10/27 16:56:39;;;;;;;;;;;;;;;;;;5070649;28;19931;-72
2023/10/27 16:59:05;;;;;;;;;;;;;;;;;;5070787;28;20003;-72
2023/10/27 17:01:31;;;;;;;;;;;;;;;;;;5070356;28;19956;-72
2023/10/27 17:03:57;;;;;;;;;;;;;;;;;;5070868;28;19917;-71
2023/10/27 17:06:23;;;;;;;;;;;;;;;;;;5070690;28;20043;-72
2023/10/27 17:08:49;;;;;;;;;;;;;;;;;;5070465;28;19912;-72
2023/10/27 17:11:15;;;;;;;;;;;;;;;;;;5070662;28;20318;-72
2023/10/27 17:14:53;;;;;;;;;;;;;;;;;;5091485;27;19916;-71
2023/10/27 17:17:19;;;;;;;;;;;;;;;;;;5090956;28;19919;-71
2023/10/27 17:19:45;;;;;;;;;;;;;;;;;;5091303;28;19913;-71
2023/10/27 17:22:11;;;;;;;;;;;;;;;;;;5091236;28;19908;-72
2023/10/27 17:24:37;;;;;;;;;;;;;;;;;;5090676;28;19908;-73
2023/10/27 17:27:04;;;;;;;;;;;;;;;;;;5091178;28;19920;-71
2023/10/27 17:29:37;;;;;;;;;;;;;;;;;;5091173;27;19916;-70
2023/10/27 17:32:04;;;;;;;;;;;;;;;;;;5091188;28;19966;-70
2023/10/27 17:34:30;;;;;;;;;;;;;;;;;;5091171;28;19991;-72
2023/10/27 17:39:10;;;;;;;;;;;;;;;;;;5091595;27;19916;-72
2023/10/27 17:41:37;;;;;;;;;;;;;;;;;;5091204;28;20394;-73
2023/10/27 17:44:07;;;;;;;;;;;;;;;;;;5090853;28;20326;-72
2023/10/27 17:46:33;;;;;;;;;;;;;;;;;;5091113;28;20213;-72
2023/10/27 17:48:59;;;;;;;;;;;;;;;;;;5091327;28;19908;-73
2023/10/27 17:51:25;;;;;;;;;;;;;;;;;;5090720;28;19909;-73
2023/10/27 17:53:51;;;;;;;;;;;;;;;;;;5091049;28;19999;-72
2023/10/27 17:56:17;;;;;;;;;;;;;;;;;;5090885;28;19909;-72
2023/10/27 17:58:43;;;;;;;;;;;;;;;;;;5090484;28;20033;-72
2023/10/27 18:01:09;;;;;;;;;;;;;;;;;;5090870;28;19919;-72
2023/10/27 18:03:35;;;;;;;;;;;;;;;;;;5090790;28;20396;-72
2023/10/27 18:06:01;;;;;;;;;;;;;;;;;;5090438;28;20292;-73
2023/10/27 18:08:28;;;;;;;;;;;;;;;;;;5090579;28;19914;-71
2023/10/27 18:10:54;;;;;;;;;;;;;;;;;;5090715;28;19909;-71
2023/10/27 18:13:20;;;;;;;;;;;;;;;;;;5090224;28;20288;-71
2023/10/27 18:15:46;;;;;;;;;;;;;;;;;;5090621;28;19912;-71
2023/10/27 18:18:12;;;;;;;;;;;;;;;;;;5090599;28;19923;-71
2023/10/27 18:20:39;;;;;;;;;;;;;;;;;;5088694;28;19944;-72
2023/10/27 18:23:05;;;;;;;;;;;;;;;;;;5090523;28;20372;-72
2023/10/27 18:25:31;;;;;;;;;;;;;;;;;;5090334;28;19912;-73
2023/10/27 18:27:57;;;;;;;;;;;;;;;;;;5089913;28;19912;-73
2023/10/27 18:30:23;;;;;;;;;;;;;;;;;;5090305;28;19912;-73
2023/10/27 18:33:09;;;;;;;;;;;;;;;;;;5091019;27;20295;-72
2023/10/27 18:35:37;;;;;;;;;;;;;;;;;;5091338;28;19913;-72
2023/10/27 18:38:03;;;;;;;;;;;;;;;;;;5091226;28;19915;-73
2023/10/27 18:40:29;;;;;;;;;;;;;;;;;;5090901;28;19912;-73
2023/10/27 18:42:56;;;;;;;;;;;;;;;;;;5091094;28;19944;-73
2023/10/27 18:45:22;;;;;;;;;;;;;;;;;;5091191;28;19933;-73
2023/10/27 18:47:49;;;;;;;;;;;;;;;;;;5090660;28;19908;-73
2023/10/27 18:50:15;;;;;;;;;;;;;;;;;;5091063;28;19908;-73
2023/10/27 18:54:30;;;;;;;;;;;;;;;;;;5091227;27;19923;-70
2023/10/27 18:56:56;;;;;;;;;;;;;;;;;;5090015;28;20002;-71
2023/10/27 18:59:26;;;;;;;;;;;;;;;;;;5091226;28;19912;-72
2023/10/27 19:01:52;;;;;;;;;;;;;;;;;;5089480;28;19991;-72
2023/10/27 19:04:19;;;;;;;;;;;;;;;;;;5090995;28;19916;-71
2023/10/27 19:06:45;;;;;;;;;;;;;;;;;;5091033;28;19912;-71
2023/10/27 19:13:46;;;;;;;;;;;;;;;;;;5091392;27;19917;-70
2023/10/27 19:17:53;;;;;;;;;;;;;;;;;;5091197;27;20381;-71
2023/10/27 19:20:19;;;;;;;;;;;;;;;;;;5091418;28;19912;-70